sensor_id;sensor_type;location;lat;lon;timestamp;P1;durP1;ratioP1;P2;durP2;ratioP2
71381;SDS011;60099;45.660;13.804;2022-10-16T00:01:59;32.10;;;22.75;;
71381;SDS011;60099;45.660;13.804;2022-10-16T00:04:25;30.30;;;23.48;;
71381;SDS011;60099;45.660;13.804;2022-10-16T00:06:50;33.30;;;23.15;;
71381;SDS011;60099;45.660;13.804;2022-10-16T00:09:16;31.13;;;23.13;;
71381;SDS011;60099;45.660;13.804;2022-10-16T00:11:42;30.67;;;22.65;;
71381;SDS011;60099;45.660;13.804;2022-10-16T00:14:12;32.65;;;23.60;;
71381;SDS011;60099;45.660;13.804;2022-10-16T00:16:39;33.53;;;24.45;;
71381;SDS011;60099;45.660;13.804;2022-10-16T00:19:06;34.15;;;24.52;;
71381;SDS011;60099;45.660;13.804;2022-10-16T00:21:32;30.73;;;23.42;;
71381;SDS011;60099;45.660;13.804;2022-10-16T00:24:01;35.00;;;23.95;;
71381;SDS011;60099;45.660;13.804;2022-10-16T00:26:30;31.08;;;23.45;;
71381;SDS011;60099;45.660;13.804;2022-10-16T00:28:57;36.55;;;24.80;;
71381;SDS011;60099;45.660;13.804;2022-10-16T00:31:23;32.00;;;23.25;;
71381;SDS011;60099;45.660;13.804;2022-10-16T00:33:49;33.75;;;25.00;;
71381;SDS011;60099;45.660;13.804;2022-10-16T00:36:16;34.35;;;24.80;;
71381;SDS011;60099;45.660;13.804;2022-10-16T00:38:44;31.63;;;23.73;;
71381;SDS011;60099;45.660;13.804;2022-10-16T00:41:11;31.80;;;24.00;;
71381;SDS011;60099;45.660;13.804;2022-10-16T00:43:44;32.78;;;23.77;;
71381;SDS011;60099;45.660;13.804;2022-10-16T00:46:15;30.33;;;23.92;;
71381;SDS011;60099;45.660;13.804;2022-10-16T00:51:32;32.38;;;23.30;;
71381;SDS011;60099;45.660;13.804;2022-10-16T01:04:39;33.35;;;23.52;;
71381;SDS011;60099;45.660;13.804;2022-10-16T01:07:23;32.92;;;23.65;;
71381;SDS011;60099;45.660;13.804;2022-10-16T01:10:17;31.93;;;23.70;;
71381;SDS011;60099;45.660;13.804;2022-10-16T01:12:59;32.15;;;22.88;;
71381;SDS011;60099;45.660;13.804;2022-10-16T01:15:32;34.75;;;24.17;;
71381;SDS011;60099;45.660;13.804;2022-10-16T01:18:14;33.00;;;24.42;;
71381;SDS011;60099;45.660;13.804;2022-10-16T01:20:47;35.22;;;25.70;;
71381;SDS011;60099;45.660;13.804;2022-10-16T01:29:22;34.78;;;25.35;;
71381;SDS011;60099;45.660;13.804;2022-10-16T01:31:59;36.45;;;25.83;;
71381;SDS011;60099;45.660;13.804;2022-10-16T01:34:37;36.03;;;26.73;;
71381;SDS011;60099;45.660;13.804;2022-10-16T01:37:32;38.70;;;27.25;;
71381;SDS011;60099;45.660;13.804;2022-10-16T01:40:05;38.83;;;26.33;;
71381;SDS011;60099;45.660;13.804;2022-10-16T01:42:35;38.75;;;26.67;;
71381;SDS011;60099;45.660;13.804;2022-10-16T01:45:04;38.58;;;26.48;;
71381;SDS011;60099;45.660;13.804;2022-10-16T01:47:32;36.58;;;25.85;;
71381;SDS011;60099;45.660;13.804;2022-10-16T01:50:06;36.20;;;27.17;;
71381;SDS011;60099;45.660;13.804;2022-10-16T01:52:34;38.15;;;26.33;;
71381;SDS011;60099;45.660;13.804;2022-10-16T01:55:04;39.05;;;26.73;;
71381;SDS011;60099;45.660;13.804;2022-10-16T01:57:33;40.08;;;27.73;;
71381;SDS011;60099;45.660;13.804;2022-10-16T02:00:05;37.67;;;27.23;;
71381;SDS011;60099;45.660;13.804;2022-10-16T02:02:35;40.50;;;27.33;;
71381;SDS011;60099;45.660;13.804;2022-10-16T02:07:35;34.85;;;26.08;;
71381;SDS011;60099;45.660;13.804;2022-10-16T02:10:01;39.28;;;28.08;;
71381;SDS011;60099;45.660;13.804;2022-10-16T02:12:31;39.08;;;28.02;;
71381;SDS011;60099;45.660;13.804;2022-10-16T02:15:01;39.40;;;28.67;;
71381;SDS011;60099;45.660;13.804;2022-10-16T02:17:27;37.58;;;26.88;;
71381;SDS011;60099;45.660;13.804;2022-10-16T02:19:55;38.97;;;27.70;;
71381;SDS011;60099;45.660;13.804;2022-10-16T02:22:32;42.78;;;28.45;;
71381;SDS011;60099;45.660;13.804;2022-10-16T02:25:12;38.83;;;28.50;;
71381;SDS011;60099;45.660;13.804;2022-10-16T02:28:08;37.78;;;27.10;;
71381;SDS011;60099;45.660;13.804;2022-10-16T02:33:19;36.97;;;25.88;;
71381;SDS011;60099;45.660;13.804;2022-10-16T02:35:48;40.30;;;27.17;;
71381;SDS011;60099;45.660;13.804;2022-10-16T02:38:16;39.13;;;28.15;;
71381;SDS011;60099;45.660;13.804;2022-10-16T02:40:43;39.42;;;27.58;;
71381;SDS011;60099;45.660;13.804;2022-10-16T02:43:09;35.90;;;26.77;;
71381;SDS011;60099;45.660;13.804;2022-10-16T02:45:36;37.60;;;27.60;;
71381;SDS011;60099;45.660;13.804;2022-10-16T02:48:02;38.90;;;28.50;;
71381;SDS011;60099;45.660;13.804;2022-10-16T02:50:28;40.67;;;28.55;;
71381;SDS011;60099;45.660;13.804;2022-10-16T02:52:54;42.45;;;29.75;;
71381;SDS011;60099;45.660;13.804;2022-10-16T02:55:26;39.13;;;27.38;;
71381;SDS011;60099;45.660;13.804;2022-10-16T02:57:52;41.90;;;30.33;;
71381;SDS011;60099;45.660;13.804;2022-10-16T03:00:19;39.30;;;28.35;;
71381;SDS011;60099;45.660;13.804;2022-10-16T03:02:45;40.60;;;28.48;;
71381;SDS011;60099;45.660;13.804;2022-10-16T03:05:12;41.25;;;28.77;;
71381;SDS011;60099;45.660;13.804;2022-10-16T03:07:37;41.75;;;28.58;;
71381;SDS011;60099;45.660;13.804;2022-10-16T03:10:04;45.67;;;31.58;;
71381;SDS011;60099;45.660;13.804;2022-10-16T03:12:30;39.20;;;28.80;;
71381;SDS011;60099;45.660;13.804;2022-10-16T03:14:56;38.70;;;27.92;;
71381;SDS011;60099;45.660;13.804;2022-10-16T03:17:22;40.03;;;29.70;;
71381;SDS011;60099;45.660;13.804;2022-10-16T03:19:48;39.35;;;28.08;;
71381;SDS011;60099;45.660;13.804;2022-10-16T03:22:14;40.85;;;28.65;;
71381;SDS011;60099;45.660;13.804;2022-10-16T03:24:40;38.70;;;28.00;;
71381;SDS011;60099;45.660;13.804;2022-10-16T03:27:06;39.15;;;29.58;;
71381;SDS011;60099;45.660;13.804;2022-10-16T03:29:33;38.92;;;28.83;;
71381;SDS011;60099;45.660;13.804;2022-10-16T03:31:59;37.40;;;28.08;;
71381;SDS011;60099;45.660;13.804;2022-10-16T03:34:25;36.25;;;27.10;;
71381;SDS011;60099;45.660;13.804;2022-10-16T03:36:51;35.17;;;26.25;;
71381;SDS011;60099;45.660;13.804;2022-10-16T03:39:17;32.20;;;25.00;;
71381;SDS011;60099;45.660;13.804;2022-10-16T03:41:43;38.95;;;25.52;;
71381;SDS011;60099;45.660;13.804;2022-10-16T03:44:11;35.20;;;25.58;;
71381;SDS011;60099;45.660;13.804;2022-10-16T03:46:37;33.72;;;25.23;;
71381;SDS011;60099;45.660;13.804;2022-10-16T03:49:02;33.28;;;25.00;;
71381;SDS011;60099;45.660;13.804;2022-10-16T03:51:28;34.08;;;25.55;;
71381;SDS011;60099;45.660;13.804;2022-10-16T03:53:54;35.83;;;26.42;;
71381;SDS011;60099;45.660;13.804;2022-10-16T03:56:20;35.58;;;26.25;;
71381;SDS011;60099;45.660;13.804;2022-10-16T03:58:45;36.45;;;26.00;;
71381;SDS011;60099;45.660;13.804;2022-10-16T04:01:11;37.53;;;26.90;;
71381;SDS011;60099;45.660;13.804;2022-10-16T04:03:37;35.28;;;25.77;;
71381;SDS011;60099;45.660;13.804;2022-10-16T04:06:02;36.03;;;27.33;;
71381;SDS011;60099;45.660;13.804;2022-10-16T04:08:28;36.47;;;26.88;;
71381;SDS011;60099;45.660;13.804;2022-10-16T04:10:54;35.90;;;25.63;;
71381;SDS011;60099;45.660;13.804;2022-10-16T04:13:20;38.55;;;27.08;;
71381;SDS011;60099;45.660;13.804;2022-10-16T04:15:46;42.58;;;28.95;;
71381;SDS011;60099;45.660;13.804;2022-10-16T04:18:11;41.38;;;29.30;;
71381;SDS011;60099;45.660;13.804;2022-10-16T04:20:37;41.78;;;27.65;;
71381;SDS011;60099;45.660;13.804;2022-10-16T04:23:03;40.28;;;28.90;;
71381;SDS011;60099;45.660;13.804;2022-10-16T04:25:29;37.47;;;27.13;;
71381;SDS011;60099;45.660;13.804;2022-10-16T04:27:56;41.53;;;29.77;;
71381;SDS011;60099;45.660;13.804;2022-10-16T04:30:22;42.13;;;29.50;;
71381;SDS011;60099;45.660;13.804;2022-10-16T04:32:51;40.33;;;28.15;;
71381;SDS011;60099;45.660;13.804;2022-10-16T04:35:18;40.78;;;29.13;;
71381;SDS011;60099;45.660;13.804;2022-10-16T04:37:44;41.25;;;28.15;;
71381;SDS011;60099;45.660;13.804;2022-10-16T04:40:10;37.55;;;27.73;;
71381;SDS011;60099;45.660;13.804;2022-10-16T04:42:36;39.28;;;26.92;;
71381;SDS011;60099;45.660;13.804;2022-10-16T04:45:02;38.78;;;28.27;;
71381;SDS011;60099;45.660;13.804;2022-10-16T04:47:29;38.67;;;27.17;;
71381;SDS011;60099;45.660;13.804;2022-10-16T04:49:55;40.70;;;28.23;;
71381;SDS011;60099;45.660;13.804;2022-10-16T04:52:21;40.63;;;28.38;;
71381;SDS011;60099;45.660;13.804;2022-10-16T04:54:49;37.35;;;26.35;;
71381;SDS011;60099;45.660;13.804;2022-10-16T04:57:15;37.17;;;26.10;;
71381;SDS011;60099;45.660;13.804;2022-10-16T04:59:42;37.15;;;26.70;;
71381;SDS011;60099;45.660;13.804;2022-10-16T05:02:07;39.47;;;27.65;;
71381;SDS011;60099;45.660;13.804;2022-10-16T05:04:33;38.53;;;28.02;;
71381;SDS011;60099;45.660;13.804;2022-10-16T05:06:59;41.25;;;29.45;;
71381;SDS011;60099;45.660;13.804;2022-10-16T05:09:25;40.30;;;28.83;;
71381;SDS011;60099;45.660;13.804;2022-10-16T05:11:50;39.85;;;28.33;;
71381;SDS011;60099;45.660;13.804;2022-10-16T05:14:16;39.30;;;28.70;;
71381;SDS011;60099;45.660;13.804;2022-10-16T05:16:42;40.20;;;29.15;;
71381;SDS011;60099;45.660;13.804;2022-10-16T05:19:07;41.75;;;29.33;;
71381;SDS011;60099;45.660;13.804;2022-10-16T05:21:33;44.78;;;29.48;;
71381;SDS011;60099;45.660;13.804;2022-10-16T05:23:59;41.90;;;29.60;;
71381;SDS011;60099;45.660;13.804;2022-10-16T05:26:25;45.15;;;30.73;;
71381;SDS011;60099;45.660;13.804;2022-10-16T05:28:52;42.88;;;30.20;;
71381;SDS011;60099;45.660;13.804;2022-10-16T05:31:17;44.03;;;29.17;;
71381;SDS011;60099;45.660;13.804;2022-10-16T05:33:43;45.30;;;29.73;;
71381;SDS011;60099;45.660;13.804;2022-10-16T05:36:09;46.72;;;30.75;;
71381;SDS011;60099;45.660;13.804;2022-10-16T05:38:37;44.50;;;30.85;;
71381;SDS011;60099;45.660;13.804;2022-10-16T05:41:04;44.03;;;29.38;;
71381;SDS011;60099;45.660;13.804;2022-10-16T05:43:30;45.60;;;29.67;;
71381;SDS011;60099;45.660;13.804;2022-10-16T05:46:01;39.00;;;27.77;;
71381;SDS011;60099;45.660;13.804;2022-10-16T05:48:30;40.95;;;27.70;;
71381;SDS011;60099;45.660;13.804;2022-10-16T05:50:58;39.78;;;26.55;;
71381;SDS011;60099;45.660;13.804;2022-10-16T05:53:23;43.70;;;30.30;;
71381;SDS011;60099;45.660;13.804;2022-10-16T05:55:56;39.97;;;28.92;;
71381;SDS011;60099;45.660;13.804;2022-10-16T05:58:22;38.00;;;27.42;;
71381;SDS011;60099;45.660;13.804;2022-10-16T06:00:52;41.03;;;28.27;;
71381;SDS011;60099;45.660;13.804;2022-10-16T06:03:22;41.05;;;27.23;;
71381;SDS011;60099;45.660;13.804;2022-10-16T06:05:48;40.75;;;27.95;;
71381;SDS011;60099;45.660;13.804;2022-10-16T06:08:14;41.20;;;28.50;;
71381;SDS011;60099;45.660;13.804;2022-10-16T06:10:40;41.08;;;28.40;;
71381;SDS011;60099;45.660;13.804;2022-10-16T06:13:06;41.00;;;27.90;;
71381;SDS011;60099;45.660;13.804;2022-10-16T06:15:32;42.30;;;29.08;;
71381;SDS011;60099;45.660;13.804;2022-10-16T06:17:57;41.63;;;28.63;;
71381;SDS011;60099;45.660;13.804;2022-10-16T06:20:23;40.65;;;28.55;;
71381;SDS011;60099;45.660;13.804;2022-10-16T06:22:49;36.28;;;27.55;;
71381;SDS011;60099;45.660;13.804;2022-10-16T06:25:14;38.38;;;27.92;;
71381;SDS011;60099;45.660;13.804;2022-10-16T06:27:40;36.60;;;27.08;;
71381;SDS011;60099;45.660;13.804;2022-10-16T06:30:06;35.85;;;26.60;;
71381;SDS011;60099;45.660;13.804;2022-10-16T06:32:32;38.03;;;26.85;;
71381;SDS011;60099;45.660;13.804;2022-10-16T06:34:58;37.75;;;27.17;;
71381;SDS011;60099;45.660;13.804;2022-10-16T06:37:24;37.83;;;26.98;;
71381;SDS011;60099;45.660;13.804;2022-10-16T06:39:50;37.28;;;27.27;;
71381;SDS011;60099;45.660;13.804;2022-10-16T06:42:18;36.00;;;26.23;;
71381;SDS011;60099;45.660;13.804;2022-10-16T06:44:44;37.28;;;27.65;;
71381;SDS011;60099;45.660;13.804;2022-10-16T06:47:10;37.65;;;26.05;;
71381;SDS011;60099;45.660;13.804;2022-10-16T06:49:36;37.60;;;27.75;;
71381;SDS011;60099;45.660;13.804;2022-10-16T06:52:03;37.47;;;27.60;;
71381;SDS011;60099;45.660;13.804;2022-10-16T06:54:29;38.55;;;27.45;;
71381;SDS011;60099;45.660;13.804;2022-10-16T06:56:55;35.50;;;26.58;;
71381;SDS011;60099;45.660;13.804;2022-10-16T06:59:21;37.55;;;28.00;;
71381;SDS011;60099;45.660;13.804;2022-10-16T07:01:47;40.67;;;28.67;;
71381;SDS011;60099;45.660;13.804;2022-10-16T07:04:13;38.25;;;28.58;;
71381;SDS011;60099;45.660;13.804;2022-10-16T07:06:39;39.33;;;27.77;;
71381;SDS011;60099;45.660;13.804;2022-10-16T07:09:06;36.40;;;27.27;;
71381;SDS011;60099;45.660;13.804;2022-10-16T07:11:34;38.47;;;28.25;;
71381;SDS011;60099;45.660;13.804;2022-10-16T07:14:16;37.20;;;27.80;;
71381;SDS011;60099;45.660;13.804;2022-10-16T07:16:43;35.80;;;26.85;;
71381;SDS011;60099;45.660;13.804;2022-10-16T07:19:09;36.85;;;27.33;;
71381;SDS011;60099;45.660;13.804;2022-10-16T07:21:37;36.03;;;28.23;;
71381;SDS011;60099;45.660;13.804;2022-10-16T07:24:03;36.63;;;27.58;;
71381;SDS011;60099;45.660;13.804;2022-10-16T07:26:32;35.80;;;27.98;;
71381;SDS011;60099;45.660;13.804;2022-10-16T07:29:00;33.50;;;26.65;;
71381;SDS011;60099;45.660;13.804;2022-10-16T07:31:26;37.20;;;28.48;;
71381;SDS011;60099;45.660;13.804;2022-10-16T07:33:52;36.42;;;27.70;;
71381;SDS011;60099;45.660;13.804;2022-10-16T07:36:19;36.03;;;27.95;;
71381;SDS011;60099;45.660;13.804;2022-10-16T07:38:45;37.85;;;28.30;;
71381;SDS011;60099;45.660;13.804;2022-10-16T07:41:13;35.92;;;27.35;;
71381;SDS011;60099;45.660;13.804;2022-10-16T07:43:44;36.88;;;28.58;;
71381;SDS011;60099;45.660;13.804;2022-10-16T07:48:37;36.22;;;27.42;;
71381;SDS011;60099;45.660;13.804;2022-10-16T07:51:04;37.08;;;28.13;;
71381;SDS011;60099;45.660;13.804;2022-10-16T07:53:31;35.33;;;27.35;;
71381;SDS011;60099;45.660;13.804;2022-10-16T07:56:01;36.65;;;27.83;;
71381;SDS011;60099;45.660;13.804;2022-10-16T07:58:32;37.40;;;28.92;;
71381;SDS011;60099;45.660;13.804;2022-10-16T08:01:02;34.60;;;28.25;;
71381;SDS011;60099;45.660;13.804;2022-10-16T08:03:29;38.35;;;27.77;;
71381;SDS011;60099;45.660;13.804;2022-10-16T08:05:56;35.05;;;28.25;;
71381;SDS011;60099;45.660;13.804;2022-10-16T08:08:23;35.70;;;28.50;;
71381;SDS011;60099;45.660;13.804;2022-10-16T08:10:48;37.85;;;28.77;;
71381;SDS011;60099;45.660;13.804;2022-10-16T08:13:14;35.08;;;28.02;;
71381;SDS011;60099;45.660;13.804;2022-10-16T08:15:41;36.50;;;29.50;;
71381;SDS011;60099;45.660;13.804;2022-10-16T08:18:08;36.45;;;28.40;;
71381;SDS011;60099;45.660;13.804;2022-10-16T08:20:35;34.83;;;27.92;;
71381;SDS011;60099;45.660;13.804;2022-10-16T08:23:01;35.35;;;27.42;;
71381;SDS011;60099;45.660;13.804;2022-10-16T08:25:27;35.13;;;29.02;;
71381;SDS011;60099;45.660;13.804;2022-10-16T08:27:53;34.60;;;28.52;;
71381;SDS011;60099;45.660;13.804;2022-10-16T08:30:19;33.70;;;27.55;;
71381;SDS011;60099;45.660;13.804;2022-10-16T08:32:47;35.67;;;28.70;;
71381;SDS011;60099;45.660;13.804;2022-10-16T08:35:13;35.95;;;29.00;;
71381;SDS011;60099;45.660;13.804;2022-10-16T08:37:40;38.33;;;28.15;;
71381;SDS011;60099;45.660;13.804;2022-10-16T08:40:07;35.60;;;29.10;;
71381;SDS011;60099;45.660;13.804;2022-10-16T08:45:38;34.58;;;28.73;;
71381;SDS011;60099;45.660;13.804;2022-10-16T08:48:17;39.03;;;29.27;;
71381;SDS011;60099;45.660;13.804;2022-10-16T08:50:43;35.38;;;28.27;;
71381;SDS011;60099;45.660;13.804;2022-10-16T08:53:30;36.10;;;28.48;;
71381;SDS011;60099;45.660;13.804;2022-10-16T08:56:01;35.50;;;28.95;;
71381;SDS011;60099;45.660;13.804;2022-10-16T08:58:28;37.03;;;28.45;;
71381;SDS011;60099;45.660;13.804;2022-10-16T09:00:55;38.85;;;29.33;;
71381;SDS011;60099;45.660;13.804;2022-10-16T09:03:27;36.72;;;28.52;;
71381;SDS011;60099;45.660;13.804;2022-10-16T09:16:38;37.00;;;30.48;;
71381;SDS011;60099;45.660;13.804;2022-10-16T09:21:44;40.72;;;30.80;;
71381;SDS011;60099;45.660;13.804;2022-10-16T09:24:19;42.97;;;31.73;;
71381;SDS011;60099;45.660;13.804;2022-10-16T09:26:46;42.78;;;32.60;;
71381;SDS011;60099;45.660;13.804;2022-10-16T09:29:13;40.78;;;31.30;;
71381;SDS011;60099;45.660;13.804;2022-10-16T09:31:41;39.95;;;31.77;;
71381;SDS011;60099;45.660;13.804;2022-10-16T09:34:13;40.08;;;30.95;;
71381;SDS011;60099;45.660;13.804;2022-10-16T09:37:09;39.83;;;29.17;;
71381;SDS011;60099;45.660;13.804;2022-10-16T09:39:48;41.00;;;31.35;;
71381;SDS011;60099;45.660;13.804;2022-10-16T09:42:36;39.90;;;30.98;;
71381;SDS011;60099;45.660;13.804;2022-10-16T09:45:02;39.45;;;30.77;;
71381;SDS011;60099;45.660;13.804;2022-10-16T09:47:29;40.42;;;30.33;;
71381;SDS011;60099;45.660;13.804;2022-10-16T09:50:00;38.60;;;30.92;;
71381;SDS011;60099;45.660;13.804;2022-10-16T09:52:31;41.78;;;31.33;;
71381;SDS011;60099;45.660;13.804;2022-10-16T09:54:58;40.35;;;31.42;;
71381;SDS011;60099;45.660;13.804;2022-10-16T09:57:26;39.03;;;30.25;;
71381;SDS011;60099;45.660;13.804;2022-10-16T09:59:56;38.22;;;29.50;;
71381;SDS011;60099;45.660;13.804;2022-10-16T10:02:30;41.80;;;29.75;;
71381;SDS011;60099;45.660;13.804;2022-10-16T10:04:59;40.55;;;30.35;;
71381;SDS011;60099;45.660;13.804;2022-10-16T10:07:25;39.80;;;30.17;;
71381;SDS011;60099;45.660;13.804;2022-10-16T10:09:53;39.28;;;30.95;;
71381;SDS011;60099;45.660;13.804;2022-10-16T10:12:23;34.95;;;27.98;;
71381;SDS011;60099;45.660;13.804;2022-10-16T10:14:50;40.78;;;29.65;;
71381;SDS011;60099;45.660;13.804;2022-10-16T10:17:21;39.17;;;29.27;;
71381;SDS011;60099;45.660;13.804;2022-10-16T10:20:15;38.03;;;28.90;;
71381;SDS011;60099;45.660;13.804;2022-10-16T10:22:47;36.90;;;27.60;;
71381;SDS011;60099;45.660;13.804;2022-10-16T10:30:15;39.78;;;31.27;;
71381;SDS011;60099;45.660;13.804;2022-10-16T10:35:36;33.35;;;28.80;;
71381;SDS011;60099;45.660;13.804;2022-10-16T10:38:09;36.25;;;29.35;;
71381;SDS011;60099;45.660;13.804;2022-10-16T11:00:28;38.85;;;28.90;;
71381;SDS011;60099;45.660;13.804;2022-10-16T11:06:25;35.33;;;29.05;;
71381;SDS011;60099;45.660;13.804;2022-10-16T11:11:43;36.40;;;28.83;;
71381;SDS011;60099;45.660;13.804;2022-10-16T11:16:53;32.80;;;27.10;;
71381;SDS011;60099;45.660;13.804;2022-10-16T11:24:48;29.83;;;26.25;;
71381;SDS011;60099;45.660;13.804;2022-10-16T11:27:40;32.13;;;26.88;;
71381;SDS011;60099;45.660;13.804;2022-10-16T11:30:27;32.70;;;28.33;;
71381;SDS011;60099;45.660;13.804;2022-10-16T11:35:41;32.20;;;27.60;;
71381;SDS011;60099;45.660;13.804;2022-10-16T11:50:06;30.20;;;26.90;;
71381;SDS011;60099;45.660;13.804;2022-10-16T11:52:44;28.55;;;25.58;;
71381;SDS011;60099;45.660;13.804;2022-10-16T11:58:02;31.17;;;26.98;;
71381;SDS011;60099;45.660;13.804;2022-10-16T12:00:52;28.77;;;25.65;;
71381;SDS011;60099;45.660;13.804;2022-10-16T12:09:02;33.47;;;28.23;;
71381;SDS011;60099;45.660;13.804;2022-10-16T12:16:38;38.78;;;31.88;;
71381;SDS011;60099;45.660;13.804;2022-10-16T12:19:19;30.67;;;25.70;;
71381;SDS011;60099;45.660;13.804;2022-10-16T12:21:45;34.17;;;27.83;;
71381;SDS011;60099;45.660;13.804;2022-10-16T12:26:53;35.42;;;29.38;;
71381;SDS011;60099;45.660;13.804;2022-10-16T12:29:32;33.40;;;28.95;;
71381;SDS011;60099;45.660;13.804;2022-10-16T12:32:05;30.98;;;27.08;;
71381;SDS011;60099;45.660;13.804;2022-10-16T12:34:55;32.30;;;27.42;;
71381;SDS011;60099;45.660;13.804;2022-10-16T12:37:23;36.20;;;26.40;;
71381;SDS011;60099;45.660;13.804;2022-10-16T12:39:51;33.37;;;28.77;;
71381;SDS011;60099;45.660;13.804;2022-10-16T12:42:31;35.92;;;29.88;;
71381;SDS011;60099;45.660;13.804;2022-10-16T12:44:59;33.20;;;27.23;;
71381;SDS011;60099;45.660;13.804;2022-10-16T12:49:57;34.58;;;28.58;;
71381;SDS011;60099;45.660;13.804;2022-10-16T12:52:37;34.30;;;28.70;;
71381;SDS011;60099;45.660;13.804;2022-10-16T12:55:04;34.03;;;28.52;;
71381;SDS011;60099;45.660;13.804;2022-10-16T13:00:25;32.75;;;27.83;;
71381;SDS011;60099;45.660;13.804;2022-10-16T13:06:17;30.30;;;26.23;;
71381;SDS011;60099;45.660;13.804;2022-10-16T13:28:34;37.22;;;30.13;;
71381;SDS011;60099;45.660;13.804;2022-10-16T13:31:02;35.47;;;28.75;;
71381;SDS011;60099;45.660;13.804;2022-10-16T13:36:00;35.22;;;28.63;;
71381;SDS011;60099;45.660;13.804;2022-10-16T13:38:29;36.78;;;29.67;;
71381;SDS011;60099;45.660;13.804;2022-10-16T13:41:00;35.60;;;28.83;;
71381;SDS011;60099;45.660;13.804;2022-10-16T13:43:52;36.08;;;28.30;;
71381;SDS011;60099;45.660;13.804;2022-10-16T13:46:24;35.83;;;28.88;;
71381;SDS011;60099;45.660;13.804;2022-10-16T13:48:57;38.88;;;29.02;;
71381;SDS011;60099;45.660;13.804;2022-10-16T13:51:31;36.85;;;28.15;;
71381;SDS011;60099;45.660;13.804;2022-10-16T13:53:57;39.08;;;28.50;;
71381;SDS011;60099;45.660;13.804;2022-10-16T13:56:30;36.55;;;29.00;;
71381;SDS011;60099;45.660;13.804;2022-10-16T13:59:20;39.50;;;29.75;;
71381;SDS011;60099;45.660;13.804;2022-10-16T14:01:49;39.75;;;30.83;;
71381;SDS011;60099;45.660;13.804;2022-10-16T14:04:17;42.60;;;30.95;;
71381;SDS011;60099;45.660;13.804;2022-10-16T14:06:44;37.10;;;28.98;;
71381;SDS011;60099;45.660;13.804;2022-10-16T14:11:54;36.38;;;27.83;;
71381;SDS011;60099;45.660;13.804;2022-10-16T14:14:23;37.60;;;26.95;;
71381;SDS011;60099;45.660;13.804;2022-10-16T14:16:50;35.65;;;27.45;;
71381;SDS011;60099;45.660;13.804;2022-10-16T14:19:26;36.90;;;28.30;;
71381;SDS011;60099;45.660;13.804;2022-10-16T14:21:54;37.03;;;29.05;;
71381;SDS011;60099;45.660;13.804;2022-10-16T14:24:30;41.15;;;30.50;;
71381;SDS011;60099;45.660;13.804;2022-10-16T14:26:58;37.83;;;29.33;;
71381;SDS011;60099;45.660;13.804;2022-10-16T14:29:25;39.30;;;29.13;;
71381;SDS011;60099;45.660;13.804;2022-10-16T14:34:38;38.72;;;29.80;;
71381;SDS011;60099;45.660;13.804;2022-10-16T14:39:33;40.13;;;30.25;;
71381;SDS011;60099;45.660;13.804;2022-10-16T14:42:00;41.25;;;29.52;;
71381;SDS011;60099;45.660;13.804;2022-10-16T14:44:31;41.47;;;30.20;;
71381;SDS011;60099;45.660;13.804;2022-10-16T14:46:58;42.05;;;31.73;;
71381;SDS011;60099;45.660;13.804;2022-10-16T14:49:37;43.97;;;31.90;;
71381;SDS011;60099;45.660;13.804;2022-10-16T14:52:07;38.95;;;29.55;;
71381;SDS011;60099;45.660;13.804;2022-10-16T14:54:41;45.17;;;33.20;;
71381;SDS011;60099;45.660;13.804;2022-10-16T14:57:17;40.30;;;31.75;;
71381;SDS011;60099;45.660;13.804;2022-10-16T14:59:44;41.95;;;32.28;;
71381;SDS011;60099;45.660;13.804;2022-10-16T15:04:46;41.20;;;31.00;;
71381;SDS011;60099;45.660;13.804;2022-10-16T15:07:12;43.83;;;31.83;;
71381;SDS011;60099;45.660;13.804;2022-10-16T15:09:38;42.33;;;30.38;;
71381;SDS011;60099;45.660;13.804;2022-10-16T15:12:03;37.95;;;28.90;;
71381;SDS011;60099;45.660;13.804;2022-10-16T15:14:29;38.75;;;28.70;;
71381;SDS011;60099;45.660;13.804;2022-10-16T15:16:55;39.53;;;28.77;;
71381;SDS011;60099;45.660;13.804;2022-10-16T15:19:20;41.85;;;30.45;;
71381;SDS011;60099;45.660;13.804;2022-10-16T15:21:48;38.38;;;29.77;;
71381;SDS011;60099;45.660;13.804;2022-10-16T15:24:14;37.22;;;28.05;;
71381;SDS011;60099;45.660;13.804;2022-10-16T15:26:40;38.25;;;28.58;;
71381;SDS011;60099;45.660;13.804;2022-10-16T15:29:06;37.55;;;29.55;;
71381;SDS011;60099;45.660;13.804;2022-10-16T15:31:33;38.17;;;29.85;;
71381;SDS011;60099;45.660;13.804;2022-10-16T15:33:59;41.65;;;31.80;;
71381;SDS011;60099;45.660;13.804;2022-10-16T15:36:29;40.25;;;30.75;;
71381;SDS011;60099;45.660;13.804;2022-10-16T15:38:59;38.85;;;29.35;;
71381;SDS011;60099;45.660;13.804;2022-10-16T15:41:25;40.92;;;31.48;;
71381;SDS011;60099;45.660;13.804;2022-10-16T15:43:51;39.78;;;29.25;;
71381;SDS011;60099;45.660;13.804;2022-10-16T15:46:21;37.72;;;30.05;;
71381;SDS011;60099;45.660;13.804;2022-10-16T15:48:48;41.47;;;30.85;;
71381;SDS011;60099;45.660;13.804;2022-10-16T15:51:15;37.72;;;30.08;;
71381;SDS011;60099;45.660;13.804;2022-10-16T15:53:41;41.88;;;30.45;;
71381;SDS011;60099;45.660;13.804;2022-10-16T15:56:08;39.22;;;29.58;;
71381;SDS011;60099;45.660;13.804;2022-10-16T15:58:35;42.78;;;31.73;;
71381;SDS011;60099;45.660;13.804;2022-10-16T16:01:01;40.50;;;30.55;;
71381;SDS011;60099;45.660;13.804;2022-10-16T16:03:28;43.42;;;32.88;;
71381;SDS011;60099;45.660;13.804;2022-10-16T16:05:56;38.90;;;29.73;;
71381;SDS011;60099;45.660;13.804;2022-10-16T16:08:23;42.25;;;30.90;;
71381;SDS011;60099;45.660;13.804;2022-10-16T16:10:58;41.72;;;30.83;;
71381;SDS011;60099;45.660;13.804;2022-10-16T16:13:35;40.70;;;30.83;;
71381;SDS011;60099;45.660;13.804;2022-10-16T16:16:07;42.50;;;31.00;;
71381;SDS011;60099;45.660;13.804;2022-10-16T16:18:38;41.53;;;30.10;;
71381;SDS011;60099;45.660;13.804;2022-10-16T16:21:04;41.22;;;30.73;;
71381;SDS011;60099;45.660;13.804;2022-10-16T16:23:30;45.55;;;32.85;;
71381;SDS011;60099;45.660;13.804;2022-10-16T16:26:07;44.38;;;31.70;;
71381;SDS011;60099;45.660;13.804;2022-10-16T16:28:37;39.88;;;30.40;;
71381;SDS011;60099;45.660;13.804;2022-10-16T16:31:03;40.90;;;30.63;;
71381;SDS011;60099;45.660;13.804;2022-10-16T16:33:29;41.28;;;29.80;;
71381;SDS011;60099;45.660;13.804;2022-10-16T16:36:00;40.47;;;28.75;;
71381;SDS011;60099;45.660;13.804;2022-10-16T16:38:27;38.47;;;28.77;;
71381;SDS011;60099;45.660;13.804;2022-10-16T16:40:54;38.45;;;26.77;;
71381;SDS011;60099;45.660;13.804;2022-10-16T16:43:26;37.33;;;26.92;;
71381;SDS011;60099;45.660;13.804;2022-10-16T16:45:53;41.00;;;26.90;;
71381;SDS011;60099;45.660;13.804;2022-10-16T16:48:20;38.38;;;27.50;;
71381;SDS011;60099;45.660;13.804;2022-10-16T16:50:46;34.53;;;26.73;;
71381;SDS011;60099;45.660;13.804;2022-10-16T16:53:12;35.90;;;26.52;;
71381;SDS011;60099;45.660;13.804;2022-10-16T16:55:38;37.00;;;26.33;;
71381;SDS011;60099;45.660;13.804;2022-10-16T16:58:04;38.63;;;27.05;;